Time;durP1;ratioP1;P1;durP2;ratioP2;P2;SDS_P1;SDS_P2;PMS_P1;PMS_P2;Temp;Humidity;BMP_temperature;BMP_pressure;BME280_temperature;BME280_humidity;BME280_pressure;Samples;Min_cycle;Max_cycle;Signal;HPM_P1;HPM_P2
2021/08/21 00:01:33;;;;;;;129.47;124.03;;;;;;;;;;5010052;28;20476;-63
2021/08/21 00:04:02;;;;;;;129.77;124.27;;;;;;;;;;5005563;28;20453;-63
2021/08/21 00:06:29;;;;;;;128.17;122.43;;;;;;;;;;5011745;28;20469;-64
2021/08/21 00:08:56;;;;;;;128.60;123.23;;;;;;;;;;5012433;28;20970;-63
2021/08/21 00:11:23;;;;;;;129.30;124.00;;;;;;;;;;5011423;28;20462;-63
2021/08/21 00:13:50;;;;;;;121.13;116.10;;;;;;;;;;5011378;28;20465;-63
2021/08/21 00:16:17;;;;;;;126.53;121.33;;;;;;;;;;5010892;28;20485;-63
2021/08/21 00:18:44;;;;;;;124.50;119.30;;;;;;;;;;5010946;28;20470;-63
2021/08/21 00:21:14;;;;;;;123.07;117.97;;;;;;;;;;5008799;28;20461;-64
2021/08/21 00:23:41;;;;;;;122.57;117.47;;;;;;;;;;5012213;28;20956;-64
2021/08/21 00:26:08;;;;;;;121.40;116.40;;;;;;;;;;5008539;28;21376;-62
2021/08/21 00:28:35;;;;;;;116.10;111.10;;;;;;;;;;5011352;28;20456;-62
2021/08/21 00:31:03;;;;;;;116.43;111.63;;;;;;;;;;5005182;28;20463;-63
2021/08/21 00:33:30;;;;;;;117.83;112.90;;;;;;;;;;5010873;28;20465;-63
2021/08/21 00:35:57;;;;;;;114.67;109.87;;;;;;;;;;5009767;28;20493;-63
2021/08/21 00:38:26;;;;;;;112.33;107.63;;;;;;;;;;5010913;28;20476;-62
2021/08/21 00:40:53;;;;;;;116.00;111.17;;;;;;;;;;5011005;28;20469;-63
2021/08/21 00:43:21;;;;;;;112.10;107.30;;;;;;;;;;5011870;28;20975;-63
2021/08/21 00:45:48;;;;;;;113.20;108.50;;;;;;;;;;5010485;28;20481;-63
2021/08/21 00:48:16;;;;;;;113.93;109.23;;;;;;;;;;5011900;28;20449;-63
2021/08/21 00:50:43;;;;;;;114.00;109.20;;;;;;;;;;5010979;28;20475;-64
2021/08/21 00:53:10;;;;;;;114.57;109.77;;;;;;;;;;5016684;28;20821;-64
2021/08/21 00:55:39;;;;;;;112.17;107.57;;;;;;;;;;5015703;28;20499;-63
2021/08/21 00:58:06;;;;;;;110.00;105.50;;;;;;;;;;5016969;28;20466;-63
2021/08/21 01:00:33;;;;;;;109.00;104.30;;;;;;;;;;5015029;28;20465;-63
2021/08/21 01:03:00;;;;;;;108.40;103.97;;;;;;;;;;5014577;28;20469;-63
2021/08/21 01:05:27;;;;;;;111.03;106.33;;;;;;;;;;5014957;28;20469;-63
2021/08/21 01:07:54;;;;;;;107.80;103.30;;;;;;;;;;5013932;28;20469;-63
2021/08/21 01:10:22;;;;;;;107.77;103.27;;;;;;;;;;5014853;28;20491;-63
2021/08/21 01:12:51;;;;;;;107.97;103.47;;;;;;;;;;5015789;28;20453;-63
2021/08/21 01:15:20;;;;;;;109.50;105.00;;;;;;;;;;5015023;28;20515;-64
2021/08/21 01:17:47;;;;;;;104.63;100.20;;;;;;;;;;5013977;28;20469;-62
2021/08/21 01:20:14;;;;;;;106.03;101.73;;;;;;;;;;5015150;28;20466;-63
2021/08/21 01:22:41;;;;;;;107.80;103.37;;;;;;;;;;5014881;28;20856;-62
2021/08/21 01:25:10;;;;;;;106.50;102.07;;;;;;;;;;5014728;28;20495;-63
2021/08/21 01:27:39;;;;;;;104.50;100.10;;;;;;;;;;5012853;28;20474;-63
2021/08/21 01:30:07;;;;;;;104.50;100.20;;;;;;;;;;5027330;28;20963;-63
2021/08/21 01:32:34;;;;;;;105.00;100.70;;;;;;;;;;5014455;28;20820;-63
2021/08/21 01:35:01;;;;;;;98.37;94.27;;;;;;;;;;5012965;28;20500;-64
2021/08/21 01:37:28;;;;;;;96.27;92.13;;;;;;;;;;5014177;28;21045;-62
2021/08/21 01:39:56;;;;;;;99.60;95.50;;;;;;;;;;5013910;28;20465;-63
2021/08/21 01:42:23;;;;;;;94.07;89.97;;;;;;;;;;5014910;28;20818;-63
2021/08/21 01:44:52;;;;;;;89.87;85.77;;;;;;;;;;5013292;28;20500;-63
2021/08/21 01:47:20;;;;;;;93.40;89.47;;;;;;;;;;5014521;28;20471;-63
2021/08/21 01:49:51;;;;;;;91.07;87.17;;;;;;;;;;5014834;28;20445;-64
2021/08/21 01:52:18;;;;;;;95.50;91.50;;;;;;;;;;5009436;28;20845;-63
2021/08/21 01:54:45;;;;;;;91.53;87.57;;;;;;;;;;5009688;28;20485;-63
2021/08/21 01:57:12;;;;;;;89.27;85.37;;;;;;;;;;5013336;28;20461;-63
2021/08/21 01:59:41;;;;;;;84.37;80.53;;;;;;;;;;5014894;28;20460;-63
2021/08/21 02:02:11;;;;;;;82.40;78.70;;;;;;;;;;5014145;28;20469;-63
2021/08/21 02:04:38;;;;;;;81.93;78.13;;;;;;;;;;5013343;28;21167;-63
2021/08/21 02:07:05;;;;;;;83.87;80.27;;;;;;;;;;5014762;28;20445;-63
2021/08/21 02:09:33;;;;;;;77.83;74.03;;;;;;;;;;5013737;28;20461;-61
2021/08/21 02:12:02;;;;;;;76.17;72.67;;;;;;;;;;5013543;28;20471;-63
2021/08/21 02:14:29;;;;;;;77.27;73.87;;;;;;;;;;5014075;28;20473;-63
2021/08/21 02:16:57;;;;;;;77.73;74.23;;;;;;;;;;5013873;28;20576;-63
2021/08/21 02:19:25;;;;;;;81.03;77.43;;;;;;;;;;5012248;28;20944;-63
2021/08/21 02:21:53;;;;;;;75.70;72.30;;;;;;;;;;5014236;28;20457;-64
2021/08/21 02:24:24;;;;;;;75.90;72.60;;;;;;;;;;5012764;28;20476;-63
2021/08/21 02:26:51;;;;;;;74.60;71.30;;;;;;;;;;5013107;28;20457;-63
2021/08/21 02:29:18;;;;;;;75.17;71.80;;;;;;;;;;5012528;28;20473;-63
2021/08/21 02:31:45;;;;;;;71.30;68.10;;;;;;;;;;5014048;28;20449;-63
2021/08/21 02:34:12;;;;;;;70.67;67.10;;;;;;;;;;5013678;28;20472;-64
2021/08/21 02:36:41;;;;;;;71.90;68.63;;;;;;;;;;5015189;28;20489;-63
2021/08/21 02:39:09;;;;;;;70.10;66.80;;;;;;;;;;5012442;28;20995;-63
2021/08/21 02:41:36;;;;;;;69.90;66.70;;;;;;;;;;5015588;28;20453;-63
2021/08/21 02:44:03;;;;;;;67.60;64.60;;;;;;;;;;5014079;28;20469;-62
2021/08/21 02:46:30;;;;;;;69.90;66.53;;;;;;;;;;5015241;28;20452;-64
2021/08/21 02:48:58;;;;;;;67.30;64.10;;;;;;;;;;5014124;28;20847;-63
2021/08/21 02:51:25;;;;;;;68.50;65.40;;;;;;;;;;5012159;28;20472;-63
2021/08/21 02:53:53;;;;;;;69.03;65.83;;;;;;;;;;5012830;28;20465;-63
2021/08/21 02:56:20;;;;;;;64.80;61.70;;;;;;;;;;5013282;28;20485;-63
2021/08/21 02:58:47;;;;;;;62.20;59.10;;;;;;;;;;5012186;28;20469;-64
2021/08/21 03:01:14;;;;;;;61.67;58.57;;;;;;;;;;5012802;28;20473;-63
2021/08/21 03:03:42;;;;;;;57.70;54.90;;;;;;;;;;5012582;28;20472;-61
2021/08/21 03:06:09;;;;;;;60.53;57.53;;;;;;;;;;5012590;28;20485;-63
2021/08/21 03:08:36;;;;;;;58.50;55.63;;;;;;;;;;5012515;28;20470;-62
2021/08/21 03:11:04;;;;;;;60.60;57.70;;;;;;;;;;5012436;28;20479;-64
2021/08/21 03:13:31;;;;;;;60.20;57.20;;;;;;;;;;5012252;28;20492;-63
2021/08/21 03:15:59;;;;;;;54.97;52.27;;;;;;;;;;5013173;28;20564;-64
2021/08/21 03:18:26;;;;;;;56.13;53.17;;;;;;;;;;5010910;28;20474;-63
2021/08/21 03:20:53;;;;;;;56.00;53.30;;;;;;;;;;5012562;28;20474;-63
2021/08/21 03:23:20;;;;;;;52.43;49.83;;;;;;;;;;5011988;28;20465;-63
2021/08/21 03:25:47;;;;;;;52.70;50.00;;;;;;;;;;5013109;28;20476;-64
2021/08/21 03:28:16;;;;;;;50.20;47.50;;;;;;;;;;5012264;28;20500;-61
2021/08/21 03:30:43;;;;;;;53.60;50.87;;;;;;;;;;5011186;28;20476;-62
2021/08/21 03:33:10;;;;;;;53.30;50.60;;;;;;;;;;5009245;28;20484;-63
2021/08/21 03:35:37;;;;;;;53.73;51.03;;;;;;;;;;5012796;28;20466;-63
2021/08/21 03:38:04;;;;;;;53.70;50.90;;;;;;;;;;5012168;28;20466;-63
2021/08/21 03:40:32;;;;;;;53.73;51.03;;;;;;;;;;5012510;28;20925;-63
2021/08/21 03:42:59;;;;;;;51.67;48.93;;;;;;;;;;5010876;28;20470;-61
2021/08/21 03:45:27;;;;;;;50.70;48.10;;;;;;;;;;5012027;28;20863;-63
2021/08/21 03:47:54;;;;;;;49.83;47.43;;;;;;;;;;5012053;28;20838;-63
2021/08/21 03:50:22;;;;;;;49.83;47.33;;;;;;;;;;5012385;28;20445;-63
2021/08/21 03:52:49;;;;;;;48.10;45.60;;;;;;;;;;5009479;28;20865;-63
2021/08/21 03:55:16;;;;;;;47.30;44.80;;;;;;;;;;5012998;28;20475;-63
2021/08/21 03:57:43;;;;;;;49.83;47.13;;;;;;;;;;5010295;28;20485;-62
2021/08/21 04:00:10;;;;;;;49.53;47.03;;;;;;;;;;5011666;28;20465;-60
2021/08/21 04:02:39;;;;;;;50.87;48.23;;;;;;;;;;5010876;28;20477;-62
2021/08/21 04:05:06;;;;;;;46.83;44.43;;;;;;;;;;5011954;28;20930;-63
2021/08/21 04:07:33;;;;;;;44.13;41.83;;;;;;;;;;5012407;28;20461;-63
2021/08/21 04:10:01;;;;;;;47.10;44.50;;;;;;;;;;5011987;28;20466;-62
2021/08/21 04:12:28;;;;;;;43.20;40.90;;;;;;;;;;5011727;28;20965;-63
2021/08/21 04:14:55;;;;;;;41.57;39.20;;;;;;;;;;5026631;22;20567;-67
2021/08/21 04:17:23;;;;;;;40.17;38.00;;;;;;;;;;5007367;28;20842;-68
2021/08/21 04:19:51;;;;;;;40.53;38.33;;;;;;;;;;5013802;28;20456;-68
2021/08/21 04:22:19;;;;;;;42.37;40.10;;;;;;;;;;5015221;28;20465;-67
2021/08/21 04:24:46;;;;;;;40.93;38.40;;;;;;;;;;5013416;28;20464;-68
2021/08/21 04:27:13;;;;;;;40.90;38.60;;;;;;;;;;4984841;28;20883;-67
2021/08/21 04:29:41;;;;;;;42.70;40.07;;;;;;;;;;4977919;28;20460;-68
2021/08/21 04:32:08;;;;;;;40.50;38.30;;;;;;;;;;4990798;28;20454;-68
2021/08/21 04:34:35;;;;;;;40.13;37.93;;;;;;;;;;4994335;28;20472;-67
2021/08/21 04:37:04;;;;;;;40.60;38.50;;;;;;;;;;4992484;28;20490;-68
2021/08/21 04:39:32;;;;;;;38.37;36.27;;;;;;;;;;4992108;28;20467;-68
2021/08/21 04:41:59;;;;;;;39.03;36.87;;;;;;;;;;4993450;28;20451;-67
2021/08/21 04:44:27;;;;;;;38.80;36.50;;;;;;;;;;4992953;28;20462;-67
2021/08/21 04:46:54;;;;;;;38.27;35.97;;;;;;;;;;4992559;28;20517;-67
2021/08/21 04:49:21;;;;;;;38.00;35.90;;;;;;;;;;4993684;28;20454;-67
2021/08/21 04:51:48;;;;;;;38.70;36.40;;;;;;;;;;4990611;28;20454;-67
2021/08/21 04:54:16;;;;;;;39.90;37.40;;;;;;;;;;4993677;28;20443;-67
2021/08/21 04:56:44;;;;;;;39.10;36.90;;;;;;;;;;4992211;28;20501;-67
2021/08/21 04:59:11;;;;;;;39.37;37.17;;;;;;;;;;4982520;28;20951;-67
2021/08/21 05:01:38;;;;;;;39.43;37.23;;;;;;;;;;4983302;28;20470;-67
2021/08/21 05:04:05;;;;;;;40.43;38.00;;;;;;;;;;4981478;28;20958;-67
2021/08/21 05:06:32;;;;;;;39.23;36.93;;;;;;;;;;4982498;28;20807;-67
2021/08/21 05:08:59;;;;;;;38.93;36.53;;;;;;;;;;4993936;28;20450;-67
2021/08/21 05:11:28;;;;;;;38.93;36.53;;;;;;;;;;4983771;28;20470;-67
2021/08/21 05:13:55;;;;;;;39.20;37.07;;;;;;;;;;4988984;28;20489;-68
2021/08/21 05:16:22;;;;;;;37.50;35.40;;;;;;;;;;4986198;28;20494;-67
2021/08/21 05:18:52;;;;;;;36.70;34.60;;;;;;;;;;4993153;28;20467;-67
2021/08/21 05:21:27;;;;;;;38.30;36.20;;;;;;;;;;4993040;28;20459;-67
2021/08/21 05:23:54;;;;;;;38.67;36.47;;;;;;;;;;4993412;28;20476;-67
2021/08/21 05:26:21;;;;;;;36.83;34.63;;;;;;;;;;4990585;28;20486;-68
2021/08/21 05:28:50;;;;;;;35.67;33.47;;;;;;;;;;4987130;28;20476;-67
2021/08/21 05:31:17;;;;;;;34.83;32.83;;;;;;;;;;4976351;28;20475;-67
2021/08/21 05:33:44;;;;;;;36.37;34.27;;;;;;;;;;4973761;28;20451;-66
2021/08/21 05:36:11;;;;;;;35.73;33.73;;;;;;;;;;4973451;28;21133;-68
2021/08/21 05:38:38;;;;;;;37.40;35.30;;;;;;;;;;4992980;28;20458;-67
2021/08/21 05:41:05;;;;;;;36.00;34.00;;;;;;;;;;4990057;28;20957;-67
2021/08/21 05:43:32;;;;;;;37.20;35.00;;;;;;;;;;4997307;28;20454;-67
2021/08/21 05:46:01;;;;;;;38.40;36.20;;;;;;;;;;4980926;28;20490;-67
2021/08/21 05:48:28;;;;;;;37.77;35.57;;;;;;;;;;4993941;28;20458;-67
2021/08/21 05:50:55;;;;;;;37.80;35.47;;;;;;;;;;4991339;28;20549;-67
2021/08/21 05:53:23;;;;;;;37.70;35.50;;;;;;;;;;4996348;28;20466;-66
2021/08/21 05:55:50;;;;;;;39.30;36.93;;;;;;;;;;4994560;28;20498;-68
2021/08/21 05:58:17;;;;;;;39.30;37.00;;;;;;;;;;5008724;28;20496;-67
2021/08/21 06:00:44;;;;;;;37.17;34.97;;;;;;;;;;4989528;28;20484;-71
2021/08/21 06:03:12;;;;;;;38.60;36.30;;;;;;;;;;4986877;28;20474;-67
2021/08/21 06:05:41;;;;;;;39.50;37.20;;;;;;;;;;4990607;28;20496;-67
2021/08/21 06:08:08;;;;;;;41.50;39.10;;;;;;;;;;4985337;28;21023;-67
2021/08/21 06:10:35;;;;;;;41.90;39.40;;;;;;;;;;4976989;28;20840;-67
2021/08/21 06:13:02;;;;;;;41.70;39.10;;;;;;;;;;4982564;28;20451;-68
2021/08/21 06:15:29;;;;;;;69.00;65.80;;;;;;;;;;4989783;28;20485;-67
2021/08/21 06:17:57;;;;;;;42.30;40.00;;;;;;;;;;4987810;28;20838;-67
2021/08/21 06:20:25;;;;;;;41.40;38.60;;;;;;;;;;4976292;28;20463;-67
2021/08/21 06:22:52;;;;;;;40.80;38.37;;;;;;;;;;4976676;28;20470;-67
2021/08/21 06:25:20;;;;;;;41.30;39.10;;;;;;;;;;4976953;28;20466;-67
2021/08/21 06:27:47;;;;;;;37.87;35.67;;;;;;;;;;4981141;28;20451;-68
2021/08/21 06:30:14;;;;;;;40.03;37.60;;;;;;;;;;4990360;28;20454;-68
2021/08/21 06:32:41;;;;;;;38.80;36.50;;;;;;;;;;4992432;28;20467;-67
2021/08/21 06:35:09;;;;;;;39.17;36.70;;;;;;;;;;4976124;28;20478;-67
2021/08/21 06:37:38;;;;;;;40.00;37.50;;;;;;;;;;4976358;28;20866;-68
2021/08/21 06:40:06;;;;;;;40.53;38.23;;;;;;;;;;4992860;28;20457;-67
2021/08/21 06:42:33;;;;;;;37.33;35.13;;;;;;;;;;4994245;28;20454;-67
2021/08/21 06:45:00;;;;;;;39.67;37.47;;;;;;;;;;4995859;28;20954;-67
2021/08/21 06:47:27;;;;;;;39.50;37.37;;;;;;;;;;4987572;28;20456;-67
2021/08/21 06:49:54;;;;;;;40.67;38.37;;;;;;;;;;4975448;28;20458;-67
2021/08/21 06:52:21;;;;;;;40.60;38.30;;;;;;;;;;4976217;28;20460;-67
2021/08/21 06:54:50;;;;;;;38.67;36.57;;;;;;;;;;4976237;28;20460;-67
2021/08/21 06:57:17;;;;;;;39.70;37.60;;;;;;;;;;4978091;28;20483;-67
2021/08/21 06:59:44;;;;;;;39.00;36.90;;;;;;;;;;4986766;28;20833;-67
2021/08/21 07:02:11;;;;;;;38.33;36.23;;;;;;;;;;4979557;28;20489;-67
2021/08/21 07:04:38;;;;;;;40.60;38.40;;;;;;;;;;4984116;28;20463;-67
2021/08/21 07:07:06;;;;;;;44.97;42.50;;;;;;;;;;4976072;28;20476;-67
2021/08/21 07:09:33;;;;;;;45.20;42.90;;;;;;;;;;4994496;28;20450;-67
2021/08/21 07:12:02;;;;;;;44.03;41.73;;;;;;;;;;4995591;28;20485;-67
2021/08/21 07:14:29;;;;;;;45.83;43.43;;;;;;;;;;4995742;28;20802;-67
2021/08/21 07:16:56;;;;;;;39.93;37.67;;;;;;;;;;4984276;28;20499;-68
2021/08/21 07:19:23;;;;;;;50.93;48.03;;;;;;;;;;4992442;28;20477;-68
2021/08/21 07:21:53;;;;;;;47.10;44.50;;;;;;;;;;4995414;28;20458;-67
2021/08/21 07:24:20;;;;;;;44.70;42.13;;;;;;;;;;4982531;28;20465;-68
2021/08/21 07:26:47;;;;;;;43.83;41.43;;;;;;;;;;4980103;28;20493;-69
2021/08/21 07:29:15;;;;;;;46.67;43.50;;;;;;;;;;4988123;28;20452;-67
2021/08/21 07:31:43;;;;;;;42.10;39.60;;;;;;;;;;4975924;28;20455;-67
2021/08/21 07:34:10;;;;;;;44.10;41.57;;;;;;;;;;4983679;28;20804;-67
2021/08/21 07:36:37;;;;;;;41.77;39.47;;;;;;;;;;4985106;28;20475;-67
2021/08/21 07:39:04;;;;;;;42.97;40.57;;;;;;;;;;4994522;28;20450;-67
2021/08/21 07:41:34;;;;;;;41.40;39.07;;;;;;;;;;4987333;28;20447;-68
2021/08/21 07:44:01;;;;;;;40.87;38.50;;;;;;;;;;4992897;28;20473;-67
2021/08/21 07:46:30;;;;;;;41.10;38.70;;;;;;;;;;4994464;28;20477;-68
2021/08/21 07:48:57;;;;;;;39.80;37.60;;;;;;;;;;4995055;28;20446;-67
2021/08/21 07:51:24;;;;;;;39.03;36.83;;;;;;;;;;4993796;28;20446;-67
2021/08/21 07:53:51;;;;;;;38.43;36.30;;;;;;;;;;4989267;28;20450;-67
2021/08/21 07:56:18;;;;;;;46.50;43.30;;;;;;;;;;4994821;28;20472;-65
2021/08/21 07:58:45;;;;;;;51.03;47.17;;;;;;;;;;4992462;28;21033;-65
2021/08/21 08:01:12;;;;;;;49.30;46.10;;;;;;;;;;4989090;28;20451;-65
2021/08/21 08:03:41;;;;;;;50.20;47.33;;;;;;;;;;4994321;28;20457;-68
2021/08/21 08:06:08;;;;;;;49.00;46.00;;;;;;;;;;4994061;28;20467;-66
2021/08/21 08:08:35;;;;;;;50.60;46.47;;;;;;;;;;4994133;28;20807;-67
2021/08/21 08:11:02;;;;;;;51.20;46.43;;;;;;;;;;4994415;28;20450;-71
2021/08/21 08:13:29;;;;;;;45.97;42.33;;;;;;;;;;4983163;28;20455;-68
2021/08/21 08:15:57;;;;;;;46.20;42.80;;;;;;;;;;4985818;28;20486;-67
2021/08/21 08:18:24;;;;;;;44.80;41.60;;;;;;;;;;4994007;28;20493;-68
2021/08/21 08:20:52;;;;;;;44.17;40.83;;;;;;;;;;4993956;28;20454;-67
2021/08/21 08:23:19;;;;;;;45.30;42.20;;;;;;;;;;4975084;28;20447;-67
2021/08/21 08:25:46;;;;;;;54.23;50.27;;;;;;;;;;4974250;28;20467;-67
2021/08/21 08:28:13;;;;;;;53.13;49.60;;;;;;;;;;4991409;28;20837;-67
2021/08/21 08:30:41;;;;;;;61.93;58.23;;;;;;;;;;4993904;28;20455;-67
2021/08/21 08:33:08;;;;;;;44.20;41.60;;;;;;;;;;4991644;28;20976;-68
2021/08/21 08:35:35;;;;;;;41.33;38.97;;;;;;;;;;4994713;28;20470;-69
2021/08/21 08:38:04;;;;;;;42.27;39.97;;;;;;;;;;4983650;28;20535;-68
2021/08/21 08:40:31;;;;;;;38.30;36.20;;;;;;;;;;4982762;28;20446;-68
2021/08/21 08:43:02;;;;;;;39.30;37.10;;;;;;;;;;4978262;28;20464;-68
2021/08/21 08:45:29;;;;;;;35.63;33.60;;;;;;;;;;4978451;28;20472;-68
2021/08/21 08:47:58;;;;;;;34.17;32.17;;;;;;;;;;4979855;28;20447;-68
2021/08/21 08:50:25;;;;;;;33.97;32.00;;;;;;;;;;4979718;28;20471;-68
2021/08/21 08:52:53;;;;;;;31.73;29.93;;;;;;;;;;4995305;28;20845;-68
2021/08/21 08:55:22;;;;;;;29.30;27.60;;;;;;;;;;4992489;28;20533;-68
2021/08/21 08:57:50;;;;;;;28.50;26.90;;;;;;;;;;4992768;28;20489;-68
2021/08/21 09:00:18;;;;;;;29.30;27.40;;;;;;;;;;4993241;28;20870;-68
2021/08/21 09:02:47;;;;;;;29.23;27.53;;;;;;;;;;4984908;28;20446;-68
2021/08/21 09:05:15;;;;;;;27.40;25.80;;;;;;;;;;4993714;28;20554;-68
2021/08/21 09:07:43;;;;;;;26.60;25.10;;;;;;;;;;4985273;28;20455;-68
2021/08/21 09:10:12;;;;;;;26.50;24.90;;;;;;;;;;4988963;28;20458;-68
2021/08/21 09:12:40;;;;;;;27.43;25.83;;;;;;;;;;4985551;28;20450;-68
2021/08/21 09:15:19;;;;;;;26.97;25.47;;;;;;;;;;4977778;28;20461;-68
2021/08/21 09:17:59;;;;;;;25.53;24.13;;;;;;;;;;4995053;28;20493;-68
2021/08/21 09:20:26;;;;;;;25.57;24.17;;;;;;;;;;4989664;28;20965;-68
2021/08/21 09:22:53;;;;;;;24.50;23.20;;;;;;;;;;4978682;28;20506;-68
2021/08/21 09:25:28;;;;;;;24.83;23.43;;;;;;;;;;4978685;28;21096;-68
2021/08/21 09:27:57;;;;;;;24.93;23.53;;;;;;;;;;4978507;28;20822;-68
2021/08/21 09:30:28;;;;;;;24.47;23.17;;;;;;;;;;4985778;28;20458;-68
2021/08/21 09:33:02;;;;;;;23.20;22.00;;;;;;;;;;4982308;28;20449;-69
2021/08/21 09:35:34;;;;;;;21.93;20.83;;;;;;;;;;4982333;28;20474;-68
2021/08/21 09:38:02;;;;;;;23.80;22.60;;;;;;;;;;4983105;28;20492;-69
2021/08/21 09:40:31;;;;;;;24.00;22.70;;;;;;;;;;4997454;28;20446;-68
2021/08/21 09:43:00;;;;;;;24.00;22.70;;;;;;;;;;4997345;28;21000;-68
2021/08/21 09:45:27;;;;;;;23.20;21.90;;;;;;;;;;5007006;28;21012;-68
2021/08/21 09:47:59;;;;;;;22.90;21.70;;;;;;;;;;5001799;28;20949;-69
2021/08/21 09:50:26;;;;;;;23.10;21.90;;;;;;;;;;4983342;28;20946;-70
2021/08/21 09:53:01;;;;;;;22.43;21.23;;;;;;;;;;4992772;28;20438;-69
2021/08/21 09:55:29;;;;;;;21.70;20.60;;;;;;;;;;5000844;28;20806;-70
2021/08/21 09:58:02;;;;;;;21.47;20.40;;;;;;;;;;5006035;28;20482;-69
2021/08/21 10:00:29;;;;;;;21.97;20.87;;;;;;;;;;4978042;28;21642;-70
2021/08/21 10:02:57;;;;;;;21.63;20.43;;;;;;;;;;4976913;28;20462;-69
2021/08/21 10:05:24;;;;;;;21.03;19.93;;;;;;;;;;4981173;28;20494;-70
2021/08/21 10:07:56;;;;;;;21.37;20.27;;;;;;;;;;4980593;28;20457;-71
2021/08/21 10:10:24;;;;;;;21.60;20.50;;;;;;;;;;4977517;28;20977;-71
2021/08/21 10:12:56;;;;;;;20.87;19.77;;;;;;;;;;4987374;28;20946;-70
2021/08/21 10:15:24;;;;;;;21.03;19.93;;;;;;;;;;4980519;28;20570;-70
2021/08/21 10:17:51;;;;;;;20.87;19.77;;;;;;;;;;4975819;28;20491;-70
2021/08/21 10:20:19;;;;;;;20.77;19.67;;;;;;;;;;4974882;28;20452;-69
2021/08/21 10:22:46;;;;;;;20.40;19.40;;;;;;;;;;4974856;28;20459;-71
2021/08/21 10:25:14;;;;;;;20.07;19.07;;;;;;;;;;4974893;28;20475;-69
2021/08/21 10:27:42;;;;;;;20.50;19.40;;;;;;;;;;4975220;28;20451;-70
2021/08/21 10:30:12;;;;;;;20.33;19.23;;;;;;;;;;4984853;28;20450;-70
2021/08/21 10:32:42;;;;;;;24.47;23.27;;;;;;;;;;4995181;28;20497;-69
2021/08/21 10:35:10;;;;;;;25.00;23.70;;;;;;;;;;4993885;28;20486;-70
2021/08/21 10:37:38;;;;;;;23.70;22.50;;;;;;;;;;4994186;28;20451;-70
2021/08/21 10:40:23;;;;;;;23.77;22.47;;;;;;;;;;4985979;28;20461;-70
2021/08/21 10:42:54;;;;;;;24.67;23.37;;;;;;;;;;4976834;28;20451;-70
2021/08/21 10:45:36;;;;;;;24.60;23.40;;;;;;;;;;4993199;28;20478;-70
2021/08/21 10:48:04;;;;;;;24.20;23.00;;;;;;;;;;4994168;28;20453;-69
2021/08/21 10:50:34;;;;;;;24.17;22.93;;;;;;;;;;4993933;28;20453;-70
2021/08/21 10:53:01;;;;;;;23.60;22.40;;;;;;;;;;4994228;28;20450;-71
2021/08/21 10:55:30;;;;;;;23.20;22.00;;;;;;;;;;4986817;28;20836;-68
2021/08/21 10:58:05;;;;;;;23.70;22.40;;;;;;;;;;4993370;28;20465;-70
2021/08/21 11:00:45;;;;;;;24.87;23.57;;;;;;;;;;4995243;28;20458;-68
2021/08/21 11:03:14;;;;;;;24.30;23.00;;;;;;;;;;4994704;28;20466;-68
2021/08/21 11:05:50;;;;;;;24.47;23.23;;;;;;;;;;4995155;28;20477;-69
2021/08/21 11:08:17;;;;;;;25.60;24.10;;;;;;;;;;4994130;28;20461;-68
2021/08/21 11:10:45;;;;;;;25.00;23.60;;;;;;;;;;4995107;28;20472;-68
2021/08/21 11:13:14;;;;;;;25.63;24.27;;;;;;;;;;4995025;28;20454;-68
2021/08/21 11:15:41;;;;;;;24.73;23.43;;;;;;;;;;4995212;28;20498;-69
2021/08/21 11:18:21;;;;;;;25.37;23.97;;;;;;;;;;4995105;28;20486;-68
2021/08/21 11:20:48;;;;;;;23.90;22.60;;;;;;;;;;4994663;28;20461;-68
2021/08/21 11:23:19;;;;;;;24.60;23.30;;;;;;;;;;4983168;28;20459;-68
2021/08/21 11:25:46;;;;;;;23.33;22.03;;;;;;;;;;4976239;28;21050;-69
2021/08/21 11:28:20;;;;;;;24.33;23.03;;;;;;;;;;4986911;28;20454;-69
2021/08/21 11:31:08;;;;;;;25.00;23.70;;;;;;;;;;4975623;28;20508;-68
2021/08/21 11:33:38;;;;;;;24.00;22.60;;;;;;;;;;4988786;28;20530;-68
2021/08/21 11:36:05;;;;;;;24.67;23.37;;;;;;;;;;4992364;28;20474;-68
2021/08/21 11:38:33;;;;;;;23.67;22.37;;;;;;;;;;4993947;28;20490;-68
2021/08/21 11:41:01;;;;;;;24.93;23.63;;;;;;;;;;4993922;28;20457;-68
2021/08/21 11:43:29;;;;;;;25.23;23.93;;;;;;;;;;4994312;28;20450;-68
2021/08/21 11:45:56;;;;;;;24.10;22.90;;;;;;;;;;4988804;28;20467;-68
2021/08/21 11:48:28;;;;;;;24.03;22.83;;;;;;;;;;4983468;28;20452;-68
2021/08/21 11:50:56;;;;;;;21.70;20.60;;;;;;;;;;4975662;28;20521;-69
2021/08/21 11:53:24;;;;;;;22.93;21.73;;;;;;;;;;4980433;28;20451;-67
2021/08/21 11:55:52;;;;;;;23.77;22.37;;;;;;;;;;4984322;28;20839;-67
2021/08/21 11:58:28;;;;;;;23.67;22.43;;;;;;;;;;4974589;28;20955;-67
2021/08/21 12:00:56;;;;;;;25.70;24.50;;;;;;;;;;4975112;28;20454;-67
2021/08/21 12:03:34;;;;;;;20.37;19.37;;;;;;;;;;4973296;28;20459;-67
2021/08/21 12:06:02;;;;;;;19.57;18.57;;;;;;;;;;4991063;28;20993;-66
2021/08/21 12:08:30;;;;;;;20.43;19.37;;;;;;;;;;4992008;28;20446;-66
2021/08/21 12:10:58;;;;;;;20.10;19.00;;;;;;;;;;4992714;28;20865;-66
2021/08/21 12:13:27;;;;;;;19.93;18.93;;;;;;;;;;4976891;28;20484;-66
2021/08/21 12:15:55;;;;;;;20.60;19.50;;;;;;;;;;4974785;28;21002;-66
2021/08/21 12:18:23;;;;;;;21.07;19.97;;;;;;;;;;4989604;28;20971;-66
2021/08/21 12:20:51;;;;;;;20.70;19.67;;;;;;;;;;4978621;28;20466;-66
2021/08/21 12:23:19;;;;;;;20.90;19.90;;;;;;;;;;4992746;28;20450;-66
2021/08/21 12:25:47;;;;;;;20.30;19.20;;;;;;;;;;4992893;28;20477;-66
2021/08/21 12:28:15;;;;;;;20.90;19.90;;;;;;;;;;4991578;28;20455;-67
2021/08/21 12:30:53;;;;;;;19.90;19.00;;;;;;;;;;4979882;28;20455;-67
2021/08/21 12:33:26;;;;;;;19.73;18.83;;;;;;;;;;4973161;28;20458;-67
2021/08/21 12:35:53;;;;;;;19.87;18.97;;;;;;;;;;4987916;28;20482;-67
2021/08/21 12:38:22;;;;;;;20.00;19.00;;;;;;;;;;4992449;28;20457;-67
2021/08/21 12:41:03;;;;;;;20.70;19.70;;;;;;;;;;4979453;28;20459;-67
2021/08/21 12:43:31;;;;;;;20.20;19.20;;;;;;;;;;4974339;28;20458;-67
2021/08/21 12:45:58;;;;;;;20.37;19.13;;;;;;;;;;4973924;28;20494;-67
2021/08/21 12:48:25;;;;;;;20.50;19.50;;;;;;;;;;4973236;28;20455;-67
2021/08/21 12:50:52;;;;;;;20.17;19.27;;;;;;;;;;4972729;28;20462;-67
2021/08/21 12:53:20;;;;;;;20.83;19.83;;;;;;;;;;4990018;28;20462;-67
2021/08/21 12:55:49;;;;;;;20.00;19.10;;;;;;;;;;4992614;28;20541;-67
2021/08/21 12:58:16;;;;;;;20.10;19.10;;;;;;;;;;4992590;28;20465;-67
2021/08/21 13:00:43;;;;;;;19.40;18.50;;;;;;;;;;4973696;28;20497;-67
2021/08/21 13:03:14;;;;;;;20.30;19.30;;;;;;;;;;4973210;28;20825;-67
2021/08/21 13:05:42;;;;;;;19.40;18.47;;;;;;;;;;4981468;28;20490;-67
2021/08/21 13:08:10;;;;;;;19.40;18.50;;;;;;;;;;4991654;28;20460;-67
2021/08/21 13:10:37;;;;;;;20.40;19.40;;;;;;;;;;4991439;28;20454;-67
2021/08/21 13:13:10;;;;;;;20.40;19.40;;;;;;;;;;4984725;28;20826;-67
2021/08/21 13:15:38;;;;;;;19.83;18.93;;;;;;;;;;4977618;28;20475;-67
2021/08/21 13:18:05;;;;;;;19.20;18.30;;;;;;;;;;4989880;28;20958;-67
2021/08/21 13:20:33;;;;;;;19.23;18.33;;;;;;;;;;4983798;28;20483;-67
2021/08/21 13:23:00;;;;;;;19.53;18.53;;;;;;;;;;4972730;28;20835;-67
2021/08/21 13:25:27;;;;;;;19.30;18.40;;;;;;;;;;4972721;28;20474;-67
2021/08/21 13:27:54;;;;;;;19.77;18.77;;;;;;;;;;4978150;28;20446;-67
2021/08/21 13:30:23;;;;;;;19.40;18.50;;;;;;;;;;4993170;28;20807;-68
2021/08/21 13:32:50;;;;;;;19.60;18.60;;;;;;;;;;4993068;28;20442;-68
2021/08/21 13:35:21;;;;;;;19.20;18.20;;;;;;;;;;4983262;28;20827;-67
2021/08/21 13:37:49;;;;;;;19.03;18.03;;;;;;;;;;5001181;28;20484;-68
2021/08/21 13:40:16;;;;;;;18.80;17.90;;;;;;;;;;4992122;28;20486;-67
2021/08/21 13:42:44;;;;;;;19.40;18.50;;;;;;;;;;4983068;28;20535;-67
2021/08/21 13:45:11;;;;;;;18.83;17.93;;;;;;;;;;4987451;28;20835;-67
2021/08/21 13:47:40;;;;;;;19.80;18.70;;;;;;;;;;4979043;28;20462;-67
2021/08/21 13:50:07;;;;;;;19.50;18.60;;;;;;;;;;4972751;28;20471;-67
2021/08/21 13:52:34;;;;;;;19.80;18.80;;;;;;;;;;4980546;28;21051;-67
2021/08/21 13:55:01;;;;;;;19.20;18.30;;;;;;;;;;4974357;28;20447;-67
2021/08/21 13:57:28;;;;;;;19.20;18.30;;;;;;;;;;4991790;28;20458;-67
2021/08/21 13:59:56;;;;;;;19.77;18.87;;;;;;;;;;4981938;28;20487;-67
2021/08/21 14:02:23;;;;;;;19.30;18.40;;;;;;;;;;4975626;28;20451;-67
2021/08/21 14:04:51;;;;;;;19.33;18.33;;;;;;;;;;4975558;28;20455;-68
2021/08/21 14:07:18;;;;;;;20.00;19.00;;;;;;;;;;4975397;28;20460;-68
2021/08/21 14:09:45;;;;;;;19.20;18.30;;;;;;;;;;4983430;28;20462;-66
2021/08/21 14:12:13;;;;;;;19.70;18.70;;;;;;;;;;4995474;28;20451;-67
2021/08/21 14:14:40;;;;;;;20.00;19.00;;;;;;;;;;4994567;28;20446;-67
2021/08/21 14:17:07;;;;;;;20.20;19.20;;;;;;;;;;4995543;28;20482;-67
2021/08/21 14:19:34;;;;;;;19.50;18.60;;;;;;;;;;4988515;28;20517;-67